VOZ1532 YSSY-YMHB
Flight info
| Callsign | VOZ1532 |
|---|---|
| Flight time | 1h 31m |
| Altitude | 36000 |
| Route | WOL H20 MOTRA/N0327F200 W407 IPLET |
| Aircraft | B737/M-SDE2E3FGHIRWXY/LB1 |
Departure
| Time | 2026-05-04 12:23 |
|---|---|
| Airport | Sydney Kingsford Smith International Airport (YSSY) |
Arrival
| Time | 2026-05-04 13:54 |
|---|---|
| Airport | Hobart International Airport (YMHB) |
| Time | Latitude | Longitude | Altitude | Speed | Heading |
|---|---|---|---|---|---|
| 2026-05-04 11:50 | -33.93701 | 151.17869 | 29 ft | 0 kts | 78° |
| 2026-05-04 12:09 | -33.93702 | 151.17864 | 29 ft | 4 kts | 78° |
| 2026-05-04 12:09 | -33.93707 | 151.17832 | 29 ft | 4 kts | 84° |
| 2026-05-04 12:09 | -33.93706 | 151.17803 | 29 ft | 4 kts | 131° |
| 2026-05-04 12:09 | -33.93700 | 151.17797 | 29 ft | 0 kts | 194° |
| 2026-05-04 12:12 | -33.93704 | 151.17796 | 29 ft | 3 kts | 193° |
| 2026-05-04 12:12 | -33.93767 | 151.17778 | 29 ft | 14 kts | 193° |
| 2026-05-04 12:13 | -33.93872 | 151.17771 | 29 ft | 16 kts | 167° |
| 2026-05-04 12:14 | -33.94831 | 151.17961 | 29 ft | 20 kts | 168° |
| 2026-05-04 12:15 | -33.94968 | 151.17998 | 29 ft | 20 kts | 168° |
| 2026-05-04 12:15 | -33.95091 | 151.18054 | 29 ft | 19 kts | 123° |
| 2026-05-04 12:15 | -33.95081 | 151.18208 | 29 ft | 19 kts | 78° |
| 2026-05-04 12:15 | -33.95053 | 151.18357 | 29 ft | 18 kts | 78° |
| 2026-05-04 12:16 | -33.95043 | 151.18415 | 29 ft | 0 kts | 79° |
| 2026-05-04 12:16 | -33.95042 | 151.18425 | 29 ft | 6 kts | 79° |
| 2026-05-04 12:16 | -33.95082 | 151.18515 | 29 ft | 20 kts | 145° |
| 2026-05-04 12:17 | -33.95194 | 151.18630 | 29 ft | 21 kts | 138° |
| 2026-05-04 12:17 | -33.95318 | 151.18720 | 29 ft | 21 kts | 166° |
| 2026-05-04 12:17 | -33.95457 | 151.18755 | 29 ft | 20 kts | 168° |
| 2026-05-04 12:17 | -33.95607 | 151.18795 | 29 ft | 25 kts | 167° |
| 2026-05-04 12:18 | -33.95797 | 151.18844 | 29 ft | 31 kts | 168° |
| 2026-05-04 12:18 | -33.96009 | 151.18899 | 29 ft | 31 kts | 167° |
| 2026-05-04 12:18 | -33.96211 | 151.18952 | 29 ft | 29 kts | 168° |
| 2026-05-04 12:18 | -33.96401 | 151.19000 | 29 ft | 27 kts | 168° |
| 2026-05-04 12:19 | -33.96578 | 151.19048 | 29 ft | 25 kts | 169° |
| 2026-05-04 12:19 | -33.96745 | 151.19069 | 29 ft | 23 kts | 189° |
| 2026-05-04 12:19 | -33.96899 | 151.19085 | 29 ft | 23 kts | 167° |
| 2026-05-04 12:19 | -33.97051 | 151.19125 | 29 ft | 22 kts | 168° |
| 2026-05-04 12:20 | -33.97124 | 151.19210 | 29 ft | 12 kts | 81° |
| 2026-05-04 12:20 | -33.97115 | 151.19262 | 28 ft | 0 kts | 78° |
| 2026-05-04 12:21 | -33.97114 | 151.19267 | 27 ft | 1 kts | 78° |
| 2026-05-04 12:22 | -33.97110 | 151.19287 | 27 ft | 4 kts | 78° |
| 2026-05-04 12:22 | -33.97099 | 151.19343 | 25 ft | 11 kts | 68° |
| 2026-05-04 12:22 | -33.96927 | 151.19337 | 23 ft | 63 kts | 348° |
| 2026-05-04 12:22 | -33.96209 | 151.19144 | 28 ft | 144 kts | 347° |
| 2026-05-04 12:23 | -33.95124 | 151.18888 | 594 ft | 168 kts | 349° |
| 2026-05-04 12:23 | -33.94004 | 151.18948 | 1867 ft | 157 kts | 15° |
| 2026-05-04 12:23 | -33.93073 | 151.19770 | 2640 ft | 187 kts | 52° |
| 2026-05-04 12:23 | -33.92767 | 151.21358 | 3380 ft | 209 kts | 100° |
| 2026-05-04 12:24 | -33.93349 | 151.23031 | 4122 ft | 230 kts | 117° |
| 2026-05-04 12:24 | -33.93886 | 151.24917 | 4729 ft | 250 kts | 91° |
| 2026-05-04 12:24 | -33.93850 | 151.27148 | 5103 ft | 282 kts | 84° |
| 2026-05-04 12:24 | -33.93753 | 151.29552 | 5991 ft | 291 kts | 84° |
| 2026-05-04 12:25 | -33.93663 | 151.32007 | 7041 ft | 295 kts | 84° |
| 2026-05-04 12:25 | -33.93581 | 151.34481 | 8073 ft | 297 kts | 84° |
| 2026-05-04 12:25 | -33.93502 | 151.36982 | 9056 ft | 301 kts | 83° |
| 2026-05-04 12:25 | -33.93424 | 151.39527 | 10024 ft | 306 kts | 83° |
| 2026-05-04 12:26 | -33.93348 | 151.42111 | 10905 ft | 311 kts | 83° |
| 2026-05-04 12:26 | -33.93271 | 151.44698 | 11765 ft | 316 kts | 83° |
| 2026-05-04 12:26 | -33.93191 | 151.47372 | 12614 ft | 322 kts | 83° |
| 2026-05-04 12:26 | -33.93285 | 151.50098 | 13490 ft | 334 kts | 101° |
| 2026-05-04 12:27 | -33.94322 | 151.52639 | 14277 ft | 346 kts | 130° |
| 2026-05-04 12:27 | -33.96205 | 151.54433 | 15044 ft | 350 kts | 156° |
| 2026-05-04 12:27 | -33.98572 | 151.55225 | 15444 ft | 362 kts | 182° |
| 2026-05-04 12:27 | -34.01093 | 151.54781 | 15688 ft | 372 kts | 206° |
| 2026-05-04 12:28 | -34.03359 | 151.53320 | 16304 ft | 369 kts | 224° |
| 2026-05-04 12:28 | -34.05179 | 151.51178 | 17126 ft | 364 kts | 234° |
| 2026-05-04 12:28 | -34.06838 | 151.48871 | 17946 ft | 366 kts | 237° |
| 2026-05-04 12:28 | -34.08477 | 151.46492 | 18671 ft | 370 kts | 237° |
| 2026-05-04 12:29 | -34.10128 | 151.44083 | 19355 ft | 374 kts | 237° |
| 2026-05-04 12:29 | -34.11801 | 151.41660 | 20080 ft | 377 kts | 237° |
| 2026-05-04 12:29 | -34.13494 | 151.39230 | 20787 ft | 380 kts | 237° |
| 2026-05-04 12:29 | -34.15214 | 151.36780 | 21461 ft | 385 kts | 237° |
| 2026-05-04 12:30 | -34.16959 | 151.34304 | 22149 ft | 388 kts | 237° |
| 2026-05-04 12:30 | -34.18717 | 151.31816 | 22911 ft | 390 kts | 237° |
| 2026-05-04 12:30 | -34.20478 | 151.29329 | 23666 ft | 391 kts | 237° |
| 2026-05-04 12:30 | -34.22231 | 151.26854 | 24208 ft | 394 kts | 237° |
| 2026-05-04 12:31 | -34.24022 | 151.24321 | 24734 ft | 397 kts | 237° |
| 2026-05-04 12:31 | -34.25826 | 151.21768 | 25276 ft | 400 kts | 237° |
| 2026-05-04 12:31 | -34.27641 | 151.19198 | 25815 ft | 403 kts | 237° |
| 2026-05-04 12:31 | -34.29472 | 151.16604 | 26345 ft | 406 kts | 237° |
| 2026-05-04 12:32 | -34.31314 | 151.13992 | 26862 ft | 409 kts | 238° |
| 2026-05-04 12:32 | -34.35012 | 151.08742 | 27836 ft | 415 kts | 238° |
| 2026-05-04 12:32 | -34.36893 | 151.06069 | 28308 ft | 418 kts | 237° |
| 2026-05-04 12:33 | -34.38783 | 151.03380 | 28828 ft | 421 kts | 238° |
| 2026-05-04 12:33 | -34.40686 | 151.00674 | 29389 ft | 421 kts | 238° |
| 2026-05-04 12:33 | -34.42590 | 150.97964 | 29879 ft | 423 kts | 238° |
| 2026-05-04 12:33 | -34.44499 | 150.95244 | 30354 ft | 424 kts | 238° |
| 2026-05-04 12:34 | -34.46401 | 150.92535 | 30929 ft | 420 kts | 238° |
| 2026-05-04 12:34 | -34.48282 | 150.89856 | 31586 ft | 415 kts | 238° |
| 2026-05-04 12:34 | -34.50139 | 150.87206 | 32198 ft | 411 kts | 238° |
| 2026-05-04 12:34 | -34.51985 | 150.84565 | 32649 ft | 411 kts | 238° |
| 2026-05-04 12:35 | -34.53829 | 150.81922 | 33073 ft | 410 kts | 239° |
| 2026-05-04 12:35 | -34.55746 | 150.79351 | 33570 ft | 416 kts | 230° |
| 2026-05-04 12:35 | -34.58174 | 150.77331 | 34076 ft | 428 kts | 219° |
| 2026-05-04 12:35 | -34.60795 | 150.75601 | 34523 ft | 427 kts | 217° |
| 2026-05-04 12:36 | -34.63428 | 150.73918 | 34854 ft | 428 kts | 218° |
| 2026-05-04 12:36 | -34.66064 | 150.72235 | 35129 ft | 427 kts | 218° |
| 2026-05-04 12:36 | -34.68654 | 150.70563 | 35472 ft | 426 kts | 218° |
| 2026-05-04 12:36 | -34.71259 | 150.68861 | 35821 ft | 424 kts | 218° |
| 2026-05-04 12:37 | -34.73858 | 150.67146 | 36065 ft | 426 kts | 219° |
| 2026-05-04 12:37 | -34.79095 | 150.63658 | 36060 ft | 430 kts | 219° |
| 2026-05-04 12:38 | -34.84310 | 150.60194 | 36068 ft | 423 kts | 219° |
| 2026-05-04 12:38 | -34.89474 | 150.56753 | 36081 ft | 424 kts | 219° |
| 2026-05-04 12:39 | -34.94664 | 150.53372 | 36065 ft | 431 kts | 213° |
| 2026-05-04 12:39 | -34.97524 | 150.52127 | 36071 ft | 443 kts | 205° |
| 2026-05-04 12:39 | -35.00517 | 150.51195 | 36082 ft | 445 kts | 203° |
| 2026-05-04 12:40 | -35.06573 | 150.49473 | 36078 ft | 447 kts | 202° |
| 2026-05-04 12:40 | -35.11609 | 150.48044 | 36083 ft | 448 kts | 202° |
| 2026-05-04 12:41 | -35.18671 | 150.45978 | 36075 ft | 448 kts | 203° |
| 2026-05-04 12:41 | -35.23753 | 150.44465 | 36073 ft | 449 kts | 203° |
| 2026-05-04 12:42 | -35.29816 | 150.42651 | 36086 ft | 449 kts | 203° |
| 2026-05-04 12:42 | -35.35873 | 150.40835 | 36063 ft | 450 kts | 203° |
| 2026-05-04 12:43 | -35.41961 | 150.39009 | 36069 ft | 450 kts | 203° |
| 2026-05-04 12:43 | -35.48051 | 150.37180 | 36064 ft | 450 kts | 203° |
| 2026-05-04 12:44 | -35.54150 | 150.35344 | 36073 ft | 451 kts | 203° |
| 2026-05-04 12:44 | -35.60252 | 150.33507 | 36073 ft | 452 kts | 203° |
| 2026-05-04 12:45 | -35.66374 | 150.31661 | 36057 ft | 452 kts | 203° |
| 2026-05-04 12:45 | -35.72482 | 150.29814 | 36050 ft | 452 kts | 203° |
| 2026-05-04 12:46 | -35.78588 | 150.27966 | 36045 ft | 452 kts | 203° |
| 2026-05-04 12:46 | -35.84655 | 150.26128 | 36042 ft | 452 kts | 203° |
| 2026-05-04 12:47 | -35.90761 | 150.24275 | 36058 ft | 452 kts | 203° |
| 2026-05-04 12:47 | -35.96868 | 150.22417 | 36049 ft | 452 kts | 203° |
| 2026-05-04 12:48 | -36.02990 | 150.20553 | 36038 ft | 452 kts | 203° |
| 2026-05-04 12:48 | -36.09107 | 150.18687 | 36065 ft | 452 kts | 203° |
| 2026-05-04 12:49 | -36.15197 | 150.16823 | 36074 ft | 453 kts | 203° |
| 2026-05-04 12:49 | -36.21328 | 150.14946 | 36041 ft | 454 kts | 203° |
| 2026-05-04 12:50 | -36.27467 | 150.13064 | 36034 ft | 454 kts | 203° |
| 2026-05-04 12:50 | -36.33573 | 150.11189 | 36035 ft | 455 kts | 203° |
| 2026-05-04 12:51 | -36.39720 | 150.09298 | 36032 ft | 455 kts | 203° |
| 2026-05-04 12:51 | -36.45874 | 150.07402 | 36023 ft | 455 kts | 203° |
| 2026-05-04 12:52 | -36.52028 | 150.05502 | 36031 ft | 456 kts | 203° |
| 2026-05-04 12:52 | -36.58203 | 150.03594 | 36025 ft | 457 kts | 203° |
| 2026-05-04 12:53 | -36.64374 | 150.01682 | 36017 ft | 457 kts | 203° |
| 2026-05-04 12:53 | -36.70555 | 149.99766 | 36020 ft | 457 kts | 203° |
| 2026-05-04 12:54 | -36.76698 | 149.97858 | 36007 ft | 457 kts | 203° |
| 2026-05-04 12:54 | -36.82878 | 149.95936 | 36018 ft | 457 kts | 203° |
| 2026-05-04 12:55 | -36.88999 | 149.94028 | 36037 ft | 458 kts | 203° |
| 2026-05-04 12:55 | -36.95187 | 149.92095 | 36029 ft | 459 kts | 203° |
| 2026-05-04 12:56 | -37.01382 | 149.90158 | 36024 ft | 459 kts | 203° |
| 2026-05-04 12:56 | -37.07590 | 149.88214 | 36061 ft | 460 kts | 203° |
| 2026-05-04 12:57 | -37.13810 | 149.86261 | 36021 ft | 461 kts | 203° |
| 2026-05-04 12:57 | -37.20038 | 149.84305 | 36011 ft | 461 kts | 203° |
| 2026-05-04 12:58 | -37.26260 | 149.82347 | 36020 ft | 461 kts | 203° |
| 2026-05-04 12:58 | -37.32489 | 149.80383 | 36012 ft | 461 kts | 202° |
| 2026-05-04 12:59 | -37.38667 | 149.78433 | 36007 ft | 460 kts | 202° |
| 2026-05-04 12:59 | -37.44853 | 149.76476 | 36001 ft | 458 kts | 202° |
| 2026-05-04 13:00 | -37.51036 | 149.74518 | 36006 ft | 457 kts | 202° |
| 2026-05-04 13:00 | -37.57197 | 149.72562 | 35991 ft | 456 kts | 202° |
| 2026-05-04 13:01 | -37.63317 | 149.70539 | 36003 ft | 453 kts | 204° |
| 2026-05-04 13:01 | -37.69365 | 149.68313 | 35997 ft | 452 kts | 205° |
| 2026-05-04 13:02 | -37.75402 | 149.66062 | 35995 ft | 453 kts | 205° |
| 2026-05-04 13:02 | -37.81452 | 149.63829 | 35985 ft | 453 kts | 204° |
| 2026-05-04 13:03 | -37.87510 | 149.61609 | 35994 ft | 454 kts | 204° |
| 2026-05-04 13:03 | -37.93577 | 149.59387 | 35998 ft | 454 kts | 204° |
| 2026-05-04 13:04 | -37.99614 | 149.57172 | 35985 ft | 454 kts | 204° |
| 2026-05-04 13:04 | -38.05691 | 149.54938 | 35985 ft | 455 kts | 204° |
| 2026-05-04 13:05 | -38.11779 | 149.52695 | 35984 ft | 455 kts | 204° |
| 2026-05-04 13:05 | -38.17874 | 149.50447 | 35977 ft | 456 kts | 204° |
| 2026-05-04 13:06 | -38.23971 | 149.48193 | 35976 ft | 457 kts | 204° |
| 2026-05-04 13:06 | -38.30080 | 149.45931 | 35974 ft | 457 kts | 204° |
| 2026-05-04 13:07 | -38.36191 | 149.43664 | 35975 ft | 457 kts | 204° |
| 2026-05-04 13:07 | -38.42269 | 149.41405 | 35977 ft | 459 kts | 204° |
| 2026-05-04 13:08 | -38.48410 | 149.39120 | 35972 ft | 460 kts | 204° |
| 2026-05-04 13:08 | -38.54552 | 149.36829 | 35963 ft | 460 kts | 204° |
| 2026-05-04 13:09 | -38.60716 | 149.34527 | 35959 ft | 461 kts | 204° |
| 2026-05-04 13:09 | -38.66886 | 149.32218 | 35960 ft | 462 kts | 204° |
| 2026-05-04 13:10 | -38.73051 | 149.29907 | 35957 ft | 462 kts | 204° |
| 2026-05-04 13:10 | -38.79227 | 149.27587 | 35966 ft | 463 kts | 204° |
| 2026-05-04 13:11 | -38.85409 | 149.25262 | 35958 ft | 463 kts | 204° |
| 2026-05-04 13:11 | -38.91562 | 149.22943 | 35949 ft | 464 kts | 204° |
| 2026-05-04 13:12 | -38.97767 | 149.20600 | 35952 ft | 465 kts | 204° |
| 2026-05-04 13:12 | -39.03975 | 149.18252 | 35945 ft | 465 kts | 204° |
| 2026-05-04 13:13 | -39.10191 | 149.15897 | 35951 ft | 466 kts | 204° |
| 2026-05-04 13:13 | -39.16423 | 149.13530 | 35955 ft | 467 kts | 204° |
| 2026-05-04 13:14 | -39.22662 | 149.11158 | 35945 ft | 467 kts | 204° |
| 2026-05-04 13:14 | -39.28897 | 149.08782 | 35954 ft | 467 kts | 204° |
| 2026-05-04 13:15 | -39.35111 | 149.06408 | 35940 ft | 468 kts | 204° |
| 2026-05-04 13:15 | -39.41361 | 149.04017 | 35963 ft | 468 kts | 204° |
| 2026-05-04 13:16 | -39.47617 | 149.01619 | 35951 ft | 469 kts | 204° |
| 2026-05-04 13:16 | -39.53880 | 148.99214 | 35939 ft | 470 kts | 204° |
| 2026-05-04 13:17 | -39.60153 | 148.96801 | 35927 ft | 470 kts | 204° |
| 2026-05-04 13:17 | -39.66424 | 148.94385 | 35934 ft | 470 kts | 204° |
| 2026-05-04 13:18 | -39.72666 | 148.91975 | 35924 ft | 470 kts | 204° |
| 2026-05-04 13:18 | -39.78937 | 148.89549 | 35921 ft | 471 kts | 204° |
| 2026-05-04 13:19 | -39.85220 | 148.87114 | 35926 ft | 471 kts | 204° |
| 2026-05-04 13:19 | -39.91499 | 148.84676 | 35917 ft | 471 kts | 204° |
| 2026-05-04 13:20 | -39.97794 | 148.82228 | 35915 ft | 471 kts | 204° |
| 2026-05-04 13:20 | -40.04082 | 148.79778 | 35915 ft | 472 kts | 204° |
| 2026-05-04 13:21 | -40.10380 | 148.77314 | 35907 ft | 472 kts | 204° |
| 2026-05-04 13:21 | -40.16684 | 148.74842 | 35935 ft | 472 kts | 203° |
| 2026-05-04 13:22 | -40.22941 | 148.72385 | 35909 ft | 472 kts | 203° |
| 2026-05-04 13:22 | -40.29229 | 148.69912 | 35897 ft | 471 kts | 203° |
| 2026-05-04 13:23 | -40.35496 | 148.67444 | 35898 ft | 470 kts | 203° |
| 2026-05-04 13:23 | -40.41754 | 148.64973 | 35898 ft | 469 kts | 203° |
| 2026-05-04 13:24 | -40.48005 | 148.62501 | 35899 ft | 469 kts | 203° |
| 2026-05-04 13:24 | -40.54254 | 148.60024 | 35902 ft | 469 kts | 203° |
| 2026-05-04 13:25 | -40.62567 | 148.56721 | 35893 ft | 469 kts | 203° |
| 2026-05-04 13:25 | -40.69842 | 148.53825 | 35898 ft | 469 kts | 202° |
| 2026-05-04 13:26 | -40.75037 | 148.51753 | 35881 ft | 469 kts | 203° |
| 2026-05-04 13:26 | -40.82352 | 148.48829 | 35893 ft | 469 kts | 203° |
| 2026-05-04 13:27 | -40.87556 | 148.46744 | 35893 ft | 470 kts | 203° |
| 2026-05-04 13:27 | -40.93807 | 148.44236 | 35810 ft | 471 kts | 203° |
| 2026-05-04 13:28 | -40.96962 | 148.42966 | 35246 ft | 473 kts | 203° |
| 2026-05-04 13:28 | -41.00107 | 148.41701 | 34757 ft | 472 kts | 202° |
| 2026-05-04 13:28 | -41.03238 | 148.40445 | 34338 ft | 468 kts | 202° |
| 2026-05-04 13:28 | -41.06311 | 148.39208 | 33877 ft | 466 kts | 202° |
| 2026-05-04 13:29 | -41.09406 | 148.37961 | 33373 ft | 463 kts | 202° |
| 2026-05-04 13:29 | -41.12478 | 148.36720 | 32918 ft | 459 kts | 202° |
| 2026-05-04 13:29 | -41.15533 | 148.35487 | 32479 ft | 456 kts | 202° |
| 2026-05-04 13:29 | -41.18553 | 148.34265 | 32067 ft | 452 kts | 202° |
| 2026-05-04 13:30 | -41.21550 | 148.33052 | 31624 ft | 449 kts | 202° |
| 2026-05-04 13:30 | -41.24537 | 148.31841 | 31202 ft | 446 kts | 202° |
| 2026-05-04 13:30 | -41.27498 | 148.30639 | 30802 ft | 443 kts | 202° |
| 2026-05-04 13:30 | -41.30436 | 148.29445 | 30392 ft | 441 kts | 202° |
| 2026-05-04 13:31 | -41.33372 | 148.28249 | 29975 ft | 439 kts | 202° |
| 2026-05-04 13:31 | -41.36271 | 148.26961 | 29201 ft | 442 kts | 204° |
| 2026-05-04 13:31 | -41.39115 | 148.25585 | 28730 ft | 437 kts | 205° |
| 2026-05-04 13:31 | -41.41947 | 148.24174 | 28244 ft | 432 kts | 205° |
| 2026-05-04 13:32 | -41.44742 | 148.22772 | 27828 ft | 426 kts | 205° |
| 2026-05-04 13:32 | -41.47501 | 148.21394 | 27394 ft | 421 kts | 205° |
| 2026-05-04 13:32 | -41.50235 | 148.20036 | 26986 ft | 416 kts | 204° |
| 2026-05-04 13:32 | -41.52934 | 148.18703 | 26573 ft | 411 kts | 204° |
| 2026-05-04 13:33 | -41.55600 | 148.17389 | 26147 ft | 406 kts | 204° |
| 2026-05-04 13:33 | -41.58238 | 148.16092 | 25730 ft | 401 kts | 204° |
| 2026-05-04 13:33 | -41.60841 | 148.14812 | 25327 ft | 396 kts | 204° |
| 2026-05-04 13:33 | -41.63422 | 148.13543 | 24926 ft | 392 kts | 204° |
| 2026-05-04 13:34 | -41.65973 | 148.12287 | 24523 ft | 388 kts | 204° |
| 2026-05-04 13:34 | -41.68463 | 148.11060 | 24133 ft | 384 kts | 204° |
| 2026-05-04 13:34 | -41.70983 | 148.09817 | 23745 ft | 379 kts | 203° |
| 2026-05-04 13:34 | -41.73417 | 148.08616 | 23330 ft | 375 kts | 203° |
| 2026-05-04 13:35 | -41.75853 | 148.07412 | 22883 ft | 371 kts | 203° |
| 2026-05-04 13:35 | -41.80633 | 148.05051 | 22084 ft | 361 kts | 203° |
| 2026-05-04 13:35 | -41.82971 | 148.03894 | 21701 ft | 355 kts | 203° |
| 2026-05-04 13:36 | -41.85275 | 148.02752 | 21305 ft | 351 kts | 203° |
| 2026-05-04 13:36 | -41.87556 | 148.01621 | 20939 ft | 347 kts | 204° |
| 2026-05-04 13:36 | -41.89812 | 148.00501 | 20537 ft | 343 kts | 203° |
| 2026-05-04 13:36 | -41.92036 | 147.99396 | 20180 ft | 339 kts | 203° |
| 2026-05-04 13:37 | -41.94242 | 147.98299 | 19786 ft | 337 kts | 203° |
| 2026-05-04 13:37 | -41.96429 | 147.97211 | 19410 ft | 333 kts | 203° |
| 2026-05-04 13:37 | -41.98594 | 147.96133 | 19037 ft | 331 kts | 203° |
| 2026-05-04 13:37 | -42.00740 | 147.95064 | 18671 ft | 328 kts | 203° |
| 2026-05-04 13:38 | -42.02870 | 147.94003 | 18297 ft | 325 kts | 203° |
| 2026-05-04 13:38 | -42.04988 | 147.92946 | 17908 ft | 323 kts | 203° |
| 2026-05-04 13:38 | -42.07084 | 147.91900 | 17528 ft | 319 kts | 203° |
| 2026-05-04 13:38 | -42.09149 | 147.90869 | 17177 ft | 316 kts | 203° |
| 2026-05-04 13:39 | -42.11188 | 147.89849 | 16808 ft | 317 kts | 203° |
| 2026-05-04 13:39 | -42.13263 | 147.88811 | 16442 ft | 318 kts | 203° |
| 2026-05-04 13:39 | -42.15331 | 147.87775 | 16076 ft | 315 kts | 203° |
| 2026-05-04 13:39 | -42.17375 | 147.86752 | 15712 ft | 312 kts | 203° |
| 2026-05-04 13:40 | -42.19407 | 147.85734 | 15358 ft | 310 kts | 203° |
| 2026-05-04 13:40 | -42.21420 | 147.84725 | 14991 ft | 308 kts | 203° |
| 2026-05-04 13:40 | -42.23430 | 147.83717 | 14636 ft | 309 kts | 203° |
| 2026-05-04 13:40 | -42.25446 | 147.82704 | 14274 ft | 309 kts | 203° |
| 2026-05-04 13:41 | -42.27459 | 147.81692 | 13908 ft | 307 kts | 203° |
| 2026-05-04 13:41 | -42.29468 | 147.80683 | 13541 ft | 305 kts | 203° |
| 2026-05-04 13:41 | -42.31425 | 147.79699 | 13156 ft | 302 kts | 203° |
| 2026-05-04 13:42 | -42.35351 | 147.77837 | 12462 ft | 298 kts | 194° |
| 2026-05-04 13:42 | -42.37409 | 147.77439 | 12225 ft | 299 kts | 188° |
| 2026-05-04 13:42 | -42.39488 | 147.77200 | 11982 ft | 301 kts | 186° |
| 2026-05-04 13:42 | -42.41587 | 147.76985 | 11729 ft | 303 kts | 187° |
| 2026-05-04 13:43 | -42.43691 | 147.76760 | 11470 ft | 302 kts | 187° |
| 2026-05-04 13:43 | -42.45739 | 147.76528 | 11158 ft | 297 kts | 187° |
| 2026-05-04 13:43 | -42.47795 | 147.76282 | 10785 ft | 295 kts | 187° |
| 2026-05-04 13:43 | -42.49836 | 147.76030 | 10419 ft | 293 kts | 188° |
| 2026-05-04 13:44 | -42.51859 | 147.75775 | 10120 ft | 289 kts | 188° |
| 2026-05-04 13:44 | -42.53827 | 147.75525 | 9993 ft | 279 kts | 188° |
| 2026-05-04 13:44 | -42.55774 | 147.75273 | 9634 ft | 282 kts | 188° |
| 2026-05-04 13:44 | -42.57734 | 147.75019 | 9262 ft | 282 kts | 188° |
| 2026-05-04 13:45 | -42.59684 | 147.74766 | 8900 ft | 280 kts | 188° |
| 2026-05-04 13:45 | -42.61619 | 147.74514 | 8546 ft | 279 kts | 188° |
| 2026-05-04 13:45 | -42.63522 | 147.74267 | 8190 ft | 278 kts | 188° |
| 2026-05-04 13:45 | -42.65443 | 147.74017 | 7837 ft | 277 kts | 188° |
| 2026-05-04 13:46 | -42.67359 | 147.73768 | 7477 ft | 276 kts | 189° |
| 2026-05-04 13:46 | -42.69269 | 147.73518 | 7130 ft | 275 kts | 189° |
| 2026-05-04 13:46 | -42.71172 | 147.73268 | 6786 ft | 274 kts | 189° |
| 2026-05-04 13:46 | -42.73049 | 147.73024 | 6617 ft | 268 kts | 189° |
| 2026-05-04 13:47 | -42.74917 | 147.73084 | 6339 ft | 272 kts | 172° |
| 2026-05-04 13:47 | -42.76753 | 147.73726 | 6034 ft | 272 kts | 167° |
| 2026-05-04 13:47 | -42.78565 | 147.74446 | 5712 ft | 270 kts | 167° |
| 2026-05-04 13:47 | -42.80366 | 147.75142 | 5385 ft | 268 kts | 167° |
| 2026-05-04 13:48 | -42.82154 | 147.75802 | 5101 ft | 265 kts | 168° |
| 2026-05-04 13:48 | -42.83931 | 147.76445 | 4801 ft | 263 kts | 168° |
| 2026-05-04 13:48 | -42.85685 | 147.76953 | 4663 ft | 251 kts | 184° |
| 2026-05-04 13:48 | -42.87322 | 147.76501 | 4559 ft | 233 kts | 207° |
| 2026-05-04 13:49 | -42.88760 | 147.75596 | 4429 ft | 222 kts | 212° |
| 2026-05-04 13:49 | -42.90111 | 147.74668 | 4350 ft | 212 kts | 212° |
| 2026-05-04 13:49 | -42.91415 | 147.73761 | 4152 ft | 210 kts | 214° |
| 2026-05-04 13:49 | -42.92453 | 147.72499 | 3899 ft | 201 kts | 247° |
| 2026-05-04 13:50 | -42.92820 | 147.70712 | 3629 ft | 194 kts | 270° |
| 2026-05-04 13:50 | -42.92829 | 147.68871 | 3326 ft | 195 kts | 273° |
| 2026-05-04 13:50 | -42.92824 | 147.67017 | 3015 ft | 196 kts | 273° |
| 2026-05-04 13:50 | -42.92821 | 147.65145 | 2698 ft | 198 kts | 275° |
| 2026-05-04 13:51 | -42.92456 | 147.63393 | 2397 ft | 190 kts | 302° |
| 2026-05-04 13:51 | -42.91642 | 147.62062 | 2078 ft | 177 kts | 316° |
| 2026-05-04 13:51 | -42.90797 | 147.60920 | 1795 ft | 166 kts | 316° |
| 2026-05-04 13:51 | -42.90006 | 147.59848 | 1557 ft | 153 kts | 317° |
| 2026-05-04 13:52 | -42.88677 | 147.58045 | 1156 ft | 123 kts | 316° |
| 2026-05-04 13:52 | -42.88057 | 147.57207 | 1007 ft | 129 kts | 317° |
| 2026-05-04 13:52 | -42.87420 | 147.56343 | 826 ft | 129 kts | 317° |
| 2026-05-04 13:53 | -42.86789 | 147.55484 | 629 ft | 125 kts | 315° |
| 2026-05-04 13:53 | -42.86153 | 147.54605 | 586 ft | 136 kts | 314° |
| 2026-05-04 13:53 | -42.85512 | 147.53713 | 372 ft | 129 kts | 315° |
| 2026-05-04 13:54 | -42.84280 | 147.52089 | 25 ft | 115 kts | 313° |
| 2026-05-04 13:54 | -42.83810 | 147.51445 | 22 ft | 75 kts | 315° |
| 2026-05-04 13:54 | -42.83348 | 147.50815 | 21 ft | 24 kts | 315° |
| 2026-05-04 13:55 | -42.83343 | 147.50618 | 21 ft | 23 kts | 229° |
| 2026-05-04 13:55 | -42.83549 | 147.50698 | 21 ft | 13 kts | 173° |
| 2026-05-04 13:55 | -42.83613 | 147.50664 | 22 ft | 10 kts | 182° |
| 2026-05-04 13:56 | -42.83668 | 147.50644 | 22 ft | 4 kts | 225° |
| 2026-05-04 13:56 | -42.83681 | 147.50627 | 22 ft | 2 kts | 225° |
| 2026-05-04 13:56 | -42.83684 | 147.50623 | 21 ft | 0 kts | 225° |